sensor_id;sensor_type;location;lat;lon;timestamp;P1;durP1;ratioP1;P2;durP2;ratioP2
56363;SDS011;42261;52.094;4.326;2023-02-28T00:01:51;6.10;;;1.45;;
56363;SDS011;42261;52.094;4.326;2023-02-28T00:04:35;3.58;;;1.45;;
56363;SDS011;42261;52.094;4.326;2023-02-28T00:07:19;3.47;;;1.27;;
56363;SDS011;42261;52.094;4.326;2023-02-28T00:10:06;3.28;;;1.50;;
56363;SDS011;42261;52.094;4.326;2023-02-28T00:12:51;2.72;;;1.52;;
56363;SDS011;42261;52.094;4.326;2023-02-28T00:15:38;3.05;;;1.40;;
56363;SDS011;42261;52.094;4.326;2023-02-28T00:18:22;2.67;;;1.38;;
56363;SDS011;42261;52.094;4.326;2023-02-28T00:21:07;2.65;;;1.30;;
56363;SDS011;42261;52.094;4.326;2023-02-28T00:23:52;1.98;;;1.30;;
56363;SDS011;42261;52.094;4.326;2023-02-28T00:26:36;4.85;;;1.60;;
56363;SDS011;42261;52.094;4.326;2023-02-28T00:29:20;4.40;;;1.60;;
56363;SDS011;42261;52.094;4.326;2023-02-28T00:32:04;3.72;;;1.40;;
56363;SDS011;42261;52.094;4.326;2023-02-28T00:34:49;3.30;;;1.80;;
56363;SDS011;42261;52.094;4.326;2023-02-28T00:37:32;2.40;;;1.35;;
56363;SDS011;42261;52.094;4.326;2023-02-28T00:40:17;4.25;;;1.42;;
56363;SDS011;42261;52.094;4.326;2023-02-28T00:43:01;3.22;;;1.20;;
56363;SDS011;42261;52.094;4.326;2023-02-28T00:45:46;4.35;;;1.77;;
56363;SDS011;42261;52.094;4.326;2023-02-28T00:48:30;2.08;;;1.55;;
56363;SDS011;42261;52.094;4.326;2023-02-28T00:51:14;2.35;;;1.27;;
56363;SDS011;42261;52.094;4.326;2023-02-28T00:53:58;7.65;;;1.50;;
56363;SDS011;42261;52.094;4.326;2023-02-28T00:56:42;4.68;;;1.58;;
56363;SDS011;42261;52.094;4.326;2023-02-28T00:59:26;4.15;;;1.45;;
56363;SDS011;42261;52.094;4.326;2023-02-28T01:02:12;5.28;;;1.60;;
56363;SDS011;42261;52.094;4.326;2023-02-28T01:04:57;3.58;;;1.30;;
56363;SDS011;42261;52.094;4.326;2023-02-28T01:07:41;3.47;;;1.60;;
56363;SDS011;42261;52.094;4.326;2023-02-28T01:10:25;4.07;;;1.70;;
56363;SDS011;42261;52.094;4.326;2023-02-28T01:13:09;2.75;;;1.25;;
56363;SDS011;42261;52.094;4.326;2023-02-28T01:15:55;3.95;;;1.58;;
56363;SDS011;42261;52.094;4.326;2023-02-28T01:18:40;4.90;;;1.60;;
56363;SDS011;42261;52.094;4.326;2023-02-28T01:21:24;3.08;;;1.40;;
56363;SDS011;42261;52.094;4.326;2023-02-28T01:24:08;5.13;;;1.85;;
56363;SDS011;42261;52.094;4.326;2023-02-28T01:26:52;5.53;;;1.30;;
56363;SDS011;42261;52.094;4.326;2023-02-28T01:29:36;5.55;;;1.58;;
56363;SDS011;42261;52.094;4.326;2023-02-28T01:32:20;3.13;;;1.38;;
56363;SDS011;42261;52.094;4.326;2023-02-28T01:35:04;2.45;;;1.30;;
56363;SDS011;42261;52.094;4.326;2023-02-28T01:37:48;3.53;;;1.25;;
56363;SDS011;42261;52.094;4.326;2023-02-28T01:40:32;2.40;;;1.40;;
56363;SDS011;42261;52.094;4.326;2023-02-28T01:43:27;3.65;;;1.42;;
56363;SDS011;42261;52.094;4.326;2023-02-28T01:46:12;5.47;;;1.70;;
56363;SDS011;42261;52.094;4.326;2023-02-28T01:49:01;2.78;;;1.52;;
56363;SDS011;42261;52.094;4.326;2023-02-28T01:51:49;3.53;;;1.63;;
56363;SDS011;42261;52.094;4.326;2023-02-28T01:54:38;4.88;;;1.50;;
56363;SDS011;42261;52.094;4.326;2023-02-28T01:57:24;4.95;;;1.77;;
56363;SDS011;42261;52.094;4.326;2023-02-28T02:00:12;5.22;;;1.55;;
56363;SDS011;42261;52.094;4.326;2023-02-28T02:03:04;2.83;;;1.48;;
56363;SDS011;42261;52.094;4.326;2023-02-28T02:05:50;2.45;;;1.23;;
56363;SDS011;42261;52.094;4.326;2023-02-28T02:08:35;4.18;;;1.55;;
56363;SDS011;42261;52.094;4.326;2023-02-28T02:11:20;5.30;;;1.67;;
56363;SDS011;42261;52.094;4.326;2023-02-28T02:17:11;4.03;;;1.45;;
56363;SDS011;42261;52.094;4.326;2023-02-28T02:28:36;4.55;;;2.10;;
56363;SDS011;42261;52.094;4.326;2023-02-28T02:31:38;3.92;;;1.70;;
56363;SDS011;42261;52.094;4.326;2023-02-28T02:40:19;3.05;;;1.95;;
56363;SDS011;42261;52.094;4.326;2023-02-28T02:45:52;4.57;;;1.75;;
56363;SDS011;42261;52.094;4.326;2023-02-28T02:48:38;4.00;;;2.00;;
56363;SDS011;42261;52.094;4.326;2023-02-28T02:51:24;6.40;;;1.88;;
56363;SDS011;42261;52.094;4.326;2023-02-28T02:57:07;3.22;;;1.95;;
56363;SDS011;42261;52.094;4.326;2023-02-28T02:59:52;4.32;;;1.90;;
56363;SDS011;42261;52.094;4.326;2023-02-28T03:02:37;5.07;;;2.15;;
56363;SDS011;42261;52.094;4.326;2023-02-28T03:05:30;3.13;;;1.85;;
56363;SDS011;42261;52.094;4.326;2023-02-28T03:08:18;4.32;;;2.17;;
56363;SDS011;42261;52.094;4.326;2023-02-28T03:11:03;8.00;;;2.47;;
56363;SDS011;42261;52.094;4.326;2023-02-28T03:25:01;5.22;;;2.22;;
56363;SDS011;42261;52.094;4.326;2023-02-28T03:33:31;7.63;;;2.35;;
56363;SDS011;42261;52.094;4.326;2023-02-28T03:36:18;4.47;;;2.40;;
56363;SDS011;42261;52.094;4.326;2023-02-28T03:39:04;7.35;;;2.50;;
56363;SDS011;42261;52.094;4.326;2023-02-28T03:41:55;3.92;;;2.08;;
56363;SDS011;42261;52.094;4.326;2023-02-28T03:44:44;7.53;;;2.88;;
56363;SDS011;42261;52.094;4.326;2023-02-28T03:47:31;3.83;;;2.05;;
56363;SDS011;42261;52.094;4.326;2023-02-28T03:50:21;3.77;;;1.90;;
56363;SDS011;42261;52.094;4.326;2023-02-28T03:53:08;7.65;;;2.60;;
56363;SDS011;42261;52.094;4.326;2023-02-28T03:55:56;5.03;;;2.78;;
56363;SDS011;42261;52.094;4.326;2023-02-28T04:04:16;6.13;;;2.50;;
56363;SDS011;42261;52.094;4.326;2023-02-28T04:07:07;5.32;;;2.47;;
56363;SDS011;42261;52.094;4.326;2023-02-28T04:09:52;5.80;;;2.45;;
56363;SDS011;42261;52.094;4.326;2023-02-28T04:12:36;7.32;;;2.65;;
56363;SDS011;42261;52.094;4.326;2023-02-28T04:15:20;8.05;;;2.40;;
56363;SDS011;42261;52.094;4.326;2023-02-28T04:18:07;6.60;;;2.80;;
56363;SDS011;42261;52.094;4.326;2023-02-28T04:20:54;8.00;;;2.58;;
56363;SDS011;42261;52.094;4.326;2023-02-28T04:23:38;5.70;;;2.10;;
56363;SDS011;42261;52.094;4.326;2023-02-28T04:26:22;3.92;;;2.17;;
56363;SDS011;42261;52.094;4.326;2023-02-28T04:29:06;7.55;;;2.80;;
56363;SDS011;42261;52.094;4.326;2023-02-28T04:31:51;5.93;;;2.63;;
56363;SDS011;42261;52.094;4.326;2023-02-28T04:34:38;5.88;;;2.63;;
56363;SDS011;42261;52.094;4.326;2023-02-28T04:37:24;6.55;;;2.78;;
56363;SDS011;42261;52.094;4.326;2023-02-28T04:40:12;5.47;;;2.35;;
56363;SDS011;42261;52.094;4.326;2023-02-28T04:42:57;5.53;;;2.55;;
56363;SDS011;42261;52.094;4.326;2023-02-28T04:45:41;6.40;;;2.22;;
56363;SDS011;42261;52.094;4.326;2023-02-28T04:48:26;7.68;;;3.42;;
56363;SDS011;42261;52.094;4.326;2023-02-28T04:51:11;5.68;;;2.97;;
56363;SDS011;42261;52.094;4.326;2023-02-28T04:53:56;6.10;;;2.67;;
56363;SDS011;42261;52.094;4.326;2023-02-28T04:56:40;5.32;;;2.28;;
56363;SDS011;42261;52.094;4.326;2023-02-28T04:59:26;7.10;;;2.90;;
56363;SDS011;42261;52.094;4.326;2023-02-28T05:02:11;6.30;;;2.60;;
56363;SDS011;42261;52.094;4.326;2023-02-28T05:04:55;4.10;;;2.42;;
56363;SDS011;42261;52.094;4.326;2023-02-28T05:07:39;7.00;;;3.20;;
56363;SDS011;42261;52.094;4.326;2023-02-28T05:10:23;8.73;;;2.95;;
56363;SDS011;42261;52.094;4.326;2023-02-28T05:13:10;5.90;;;2.90;;
56363;SDS011;42261;52.094;4.326;2023-02-28T05:15:55;6.45;;;2.88;;
56363;SDS011;42261;52.094;4.326;2023-02-28T05:18:39;4.35;;;2.95;;
56363;SDS011;42261;52.094;4.326;2023-02-28T05:24:10;8.00;;;3.40;;
56363;SDS011;42261;52.094;4.326;2023-02-28T05:26:55;8.40;;;2.65;;
56363;SDS011;42261;52.094;4.326;2023-02-28T05:29:39;6.10;;;2.53;;
56363;SDS011;42261;52.094;4.326;2023-02-28T05:32:29;5.88;;;3.13;;
56363;SDS011;42261;52.094;4.326;2023-02-28T05:35:12;6.60;;;2.45;;
56363;SDS011;42261;52.094;4.326;2023-02-28T05:37:57;8.10;;;3.33;;
56363;SDS011;42261;52.094;4.326;2023-02-28T05:40:40;8.30;;;2.63;;
56363;SDS011;42261;52.094;4.326;2023-02-28T05:43:24;3.33;;;2.38;;
56363;SDS011;42261;52.094;4.326;2023-02-28T05:46:10;6.18;;;2.75;;
56363;SDS011;42261;52.094;4.326;2023-02-28T05:48:54;6.45;;;2.83;;
56363;SDS011;42261;52.094;4.326;2023-02-28T05:51:39;4.60;;;2.53;;
56363;SDS011;42261;52.094;4.326;2023-02-28T05:54:23;6.10;;;2.90;;
56363;SDS011;42261;52.094;4.326;2023-02-28T05:57:07;8.88;;;2.97;;
56363;SDS011;42261;52.094;4.326;2023-02-28T05:59:53;9.77;;;2.88;;
56363;SDS011;42261;52.094;4.326;2023-02-28T06:02:38;5.43;;;2.75;;
56363;SDS011;42261;52.094;4.326;2023-02-28T06:05:22;8.10;;;3.17;;
56363;SDS011;42261;52.094;4.326;2023-02-28T06:08:07;6.28;;;2.95;;
56363;SDS011;42261;52.094;4.326;2023-02-28T06:10:51;5.70;;;3.13;;
56363;SDS011;42261;52.094;4.326;2023-02-28T06:13:38;6.80;;;3.08;;
56363;SDS011;42261;52.094;4.326;2023-02-28T06:16:23;9.38;;;3.78;;
56363;SDS011;42261;52.094;4.326;2023-02-28T06:19:09;6.35;;;3.63;;
56363;SDS011;42261;52.094;4.326;2023-02-28T06:21:54;5.72;;;3.25;;
56363;SDS011;42261;52.094;4.326;2023-02-28T06:24:38;8.52;;;3.53;;
56363;SDS011;42261;52.094;4.326;2023-02-28T06:27:23;6.32;;;3.25;;
56363;SDS011;42261;52.094;4.326;2023-02-28T06:30:07;6.32;;;3.88;;
56363;SDS011;42261;52.094;4.326;2023-02-28T06:32:51;9.55;;;4.80;;
56363;SDS011;42261;52.094;4.326;2023-02-28T06:35:36;6.65;;;3.28;;
56363;SDS011;42261;52.094;4.326;2023-02-28T06:38:19;8.98;;;4.47;;
56363;SDS011;42261;52.094;4.326;2023-02-28T06:41:04;6.38;;;3.72;;
56363;SDS011;42261;52.094;4.326;2023-02-28T06:43:49;6.90;;;3.38;;
56363;SDS011;42261;52.094;4.326;2023-02-28T06:46:33;7.18;;;3.47;;
56363;SDS011;42261;52.094;4.326;2023-02-28T06:49:17;9.57;;;3.55;;
56363;SDS011;42261;52.094;4.326;2023-02-28T06:52:01;4.88;;;3.20;;
56363;SDS011;42261;52.094;4.326;2023-02-28T06:54:45;8.00;;;4.50;;
56363;SDS011;42261;52.094;4.326;2023-02-28T06:57:30;6.72;;;3.75;;
56363;SDS011;42261;52.094;4.326;2023-02-28T07:00:14;9.02;;;4.20;;
56363;SDS011;42261;52.094;4.326;2023-02-28T07:03:00;5.70;;;3.38;;
56363;SDS011;42261;52.094;4.326;2023-02-28T07:05:44;8.25;;;3.78;;
56363;SDS011;42261;52.094;4.326;2023-02-28T07:08:29;9.95;;;4.93;;
56363;SDS011;42261;52.094;4.326;2023-02-28T07:11:13;8.30;;;4.13;;
56363;SDS011;42261;52.094;4.326;2023-02-28T07:13:57;9.23;;;3.75;;
56363;SDS011;42261;52.094;4.326;2023-02-28T07:16:41;7.05;;;4.68;;
56363;SDS011;42261;52.094;4.326;2023-02-28T07:19:26;8.63;;;3.88;;
56363;SDS011;42261;52.094;4.326;2023-02-28T07:22:10;7.82;;;4.18;;
56363;SDS011;42261;52.094;4.326;2023-02-28T07:24:54;7.65;;;3.67;;
56363;SDS011;42261;52.094;4.326;2023-02-28T07:27:38;6.90;;;3.50;;
56363;SDS011;42261;52.094;4.326;2023-02-28T07:30:22;8.65;;;3.60;;
56363;SDS011;42261;52.094;4.326;2023-02-28T07:33:07;8.70;;;4.80;;
56363;SDS011;42261;52.094;4.326;2023-02-28T07:35:56;5.25;;;3.13;;
56363;SDS011;42261;52.094;4.326;2023-02-28T07:38:44;5.47;;;2.40;;
56363;SDS011;42261;52.094;4.326;2023-02-28T07:41:29;3.85;;;2.50;;
56363;SDS011;42261;52.094;4.326;2023-02-28T07:44:23;3.75;;;2.20;;
56363;SDS011;42261;52.094;4.326;2023-02-28T07:47:07;6.78;;;2.15;;
56363;SDS011;42261;52.094;4.326;2023-02-28T07:49:52;4.82;;;2.17;;
56363;SDS011;42261;52.094;4.326;2023-02-28T07:52:36;5.15;;;2.65;;
56363;SDS011;42261;52.094;4.326;2023-02-28T07:55:21;5.03;;;2.60;;
56363;SDS011;42261;52.094;4.326;2023-02-28T07:58:05;5.15;;;2.47;;
56363;SDS011;42261;52.094;4.326;2023-02-28T08:00:49;3.90;;;2.33;;
56363;SDS011;42261;52.094;4.326;2023-02-28T08:03:35;2.53;;;1.98;;
56363;SDS011;42261;52.094;4.326;2023-02-28T08:06:24;5.50;;;2.60;;
56363;SDS011;42261;52.094;4.326;2023-02-28T08:09:12;3.75;;;2.35;;
56363;SDS011;42261;52.094;4.326;2023-02-28T08:11:57;3.40;;;2.20;;
56363;SDS011;42261;52.094;4.326;2023-02-28T08:14:42;3.55;;;2.22;;
56363;SDS011;42261;52.094;4.326;2023-02-28T08:17:26;3.80;;;2.60;;
56363;SDS011;42261;52.094;4.326;2023-02-28T08:20:10;6.18;;;2.20;;
56363;SDS011;42261;52.094;4.326;2023-02-28T08:22:54;4.55;;;2.60;;
56363;SDS011;42261;52.094;4.326;2023-02-28T08:25:39;4.95;;;2.38;;
56363;SDS011;42261;52.094;4.326;2023-02-28T08:28:23;5.00;;;2.65;;
56363;SDS011;42261;52.094;4.326;2023-02-28T08:31:08;4.55;;;2.70;;
56363;SDS011;42261;52.094;4.326;2023-02-28T08:33:53;5.32;;;2.70;;
56363;SDS011;42261;52.094;4.326;2023-02-28T08:36:41;5.50;;;2.42;;
56363;SDS011;42261;52.094;4.326;2023-02-28T08:39:26;3.25;;;2.30;;
56363;SDS011;42261;52.094;4.326;2023-02-28T08:42:10;5.05;;;2.15;;
56363;SDS011;42261;52.094;4.326;2023-02-28T08:44:54;3.75;;;2.17;;
56363;SDS011;42261;52.094;4.326;2023-02-28T08:47:38;3.30;;;2.33;;
56363;SDS011;42261;52.094;4.326;2023-02-28T08:50:22;3.55;;;2.10;;
56363;SDS011;42261;52.094;4.326;2023-02-28T08:53:06;4.35;;;2.17;;
56363;SDS011;42261;52.094;4.326;2023-02-28T08:56:01;4.10;;;2.30;;
56363;SDS011;42261;52.094;4.326;2023-02-28T08:58:46;4.25;;;2.38;;
56363;SDS011;42261;52.094;4.326;2023-02-28T09:01:31;3.53;;;2.08;;
56363;SDS011;42261;52.094;4.326;2023-02-28T09:04:15;3.33;;;1.85;;
56363;SDS011;42261;52.094;4.326;2023-02-28T09:06:59;5.03;;;2.17;;
56363;SDS011;42261;52.094;4.326;2023-02-28T09:09:43;4.75;;;2.20;;
56363;SDS011;42261;52.094;4.326;2023-02-28T09:12:37;3.72;;;2.53;;
56363;SDS011;42261;52.094;4.326;2023-02-28T09:15:21;5.30;;;2.60;;
56363;SDS011;42261;52.094;4.326;2023-02-28T09:18:05;5.40;;;2.40;;
56363;SDS011;42261;52.094;4.326;2023-02-28T09:20:49;3.45;;;2.28;;
56363;SDS011;42261;52.094;4.326;2023-02-28T09:23:34;3.88;;;2.53;;
56363;SDS011;42261;52.094;4.326;2023-02-28T09:26:23;4.28;;;2.50;;
56363;SDS011;42261;52.094;4.326;2023-02-28T09:29:07;4.57;;;3.22;;
56363;SDS011;42261;52.094;4.326;2023-02-28T09:31:52;5.40;;;2.63;;
56363;SDS011;42261;52.094;4.326;2023-02-28T09:34:36;2.88;;;1.92;;
56363;SDS011;42261;52.094;4.326;2023-02-28T09:37:20;3.15;;;2.00;;
56363;SDS011;42261;52.094;4.326;2023-02-28T09:40:05;2.50;;;1.95;;
56363;SDS011;42261;52.094;4.326;2023-02-28T09:42:50;6.18;;;2.00;;
56363;SDS011;42261;52.094;4.326;2023-02-28T09:45:36;3.95;;;2.00;;
56363;SDS011;42261;52.094;4.326;2023-02-28T09:48:21;3.15;;;1.80;;
56363;SDS011;42261;52.094;4.326;2023-02-28T09:54:01;3.63;;;2.40;;
56363;SDS011;42261;52.094;4.326;2023-02-28T09:57:08;3.15;;;2.03;;
56363;SDS011;42261;52.094;4.326;2023-02-28T10:00:20;6.75;;;2.15;;
56363;SDS011;42261;52.094;4.326;2023-02-28T10:06:12;3.08;;;1.50;;
56363;SDS011;42261;52.094;4.326;2023-02-28T10:09:01;2.67;;;1.95;;
56363;SDS011;42261;52.094;4.326;2023-02-28T10:11:54;3.08;;;1.70;;
56363;SDS011;42261;52.094;4.326;2023-02-28T10:14:40;4.38;;;1.73;;
56363;SDS011;42261;52.094;4.326;2023-02-28T10:17:32;4.88;;;2.38;;
56363;SDS011;42261;52.094;4.326;2023-02-28T10:20:19;3.65;;;1.85;;
56363;SDS011;42261;52.094;4.326;2023-02-28T10:26:05;3.30;;;2.25;;
56363;SDS011;42261;52.094;4.326;2023-02-28T10:28:54;3.63;;;1.67;;
56363;SDS011;42261;52.094;4.326;2023-02-28T10:31:38;2.72;;;1.70;;
56363;SDS011;42261;52.094;4.326;2023-02-28T10:34:23;2.75;;;1.70;;
56363;SDS011;42261;52.094;4.326;2023-02-28T10:37:08;3.10;;;2.00;;
56363;SDS011;42261;52.094;4.326;2023-02-28T10:39:53;2.47;;;1.67;;
56363;SDS011;42261;52.094;4.326;2023-02-28T10:42:37;3.67;;;1.70;;
56363;SDS011;42261;52.094;4.326;2023-02-28T10:45:22;4.75;;;1.73;;
56363;SDS011;42261;52.094;4.326;2023-02-28T10:50:57;2.58;;;1.75;;
56363;SDS011;42261;52.094;4.326;2023-02-28T10:56:26;4.75;;;1.90;;
56363;SDS011;42261;52.094;4.326;2023-02-28T11:01:59;3.83;;;1.85;;
56363;SDS011;42261;52.094;4.326;2023-02-28T11:04:44;2.00;;;1.67;;
56363;SDS011;42261;52.094;4.326;2023-02-28T11:07:28;3.63;;;1.70;;
56363;SDS011;42261;52.094;4.326;2023-02-28T11:10:17;2.70;;;1.30;;
56363;SDS011;42261;52.094;4.326;2023-02-28T11:13:02;3.47;;;1.90;;
56363;SDS011;42261;52.094;4.326;2023-02-28T11:15:51;4.07;;;1.30;;
56363;SDS011;42261;52.094;4.326;2023-02-28T11:21:22;2.72;;;1.60;;
56363;SDS011;42261;52.094;4.326;2023-02-28T11:24:21;4.38;;;1.50;;
56363;SDS011;42261;52.094;4.326;2023-02-28T11:27:54;2.05;;;1.23;;
56363;SDS011;42261;52.094;4.326;2023-02-28T11:33:22;2.25;;;1.77;;
56363;SDS011;42261;52.094;4.326;2023-02-28T11:36:10;2.13;;;1.55;;
56363;SDS011;42261;52.094;4.326;2023-02-28T11:41:55;2.00;;;1.23;;
56363;SDS011;42261;52.094;4.326;2023-02-28T11:44:58;1.50;;;1.15;;
56363;SDS011;42261;52.094;4.326;2023-02-28T11:47:48;3.53;;;1.45;;
56363;SDS011;42261;52.094;4.326;2023-02-28T12:11:19;2.78;;;1.48;;
56363;SDS011;42261;52.094;4.326;2023-02-28T12:28:58;1.83;;;1.50;;
56363;SDS011;42261;52.094;4.326;2023-02-28T12:31:52;3.53;;;1.60;;
56363;SDS011;42261;52.094;4.326;2023-02-28T12:34:39;3.75;;;1.60;;
56363;SDS011;42261;52.094;4.326;2023-02-28T12:37:43;2.60;;;1.73;;
56363;SDS011;42261;52.094;4.326;2023-02-28T12:40:33;1.88;;;1.67;;
56363;SDS011;42261;52.094;4.326;2023-02-28T12:43:25;2.92;;;1.50;;
56363;SDS011;42261;52.094;4.326;2023-02-28T12:46:16;2.42;;;1.23;;
56363;SDS011;42261;52.094;4.326;2023-02-28T12:49:10;2.67;;;1.40;;
56363;SDS011;42261;52.094;4.326;2023-02-28T12:51:56;3.83;;;1.30;;
56363;SDS011;42261;52.094;4.326;2023-02-28T13:00:29;1.55;;;1.30;;
56363;SDS011;42261;52.094;4.326;2023-02-28T13:14:36;4.87;;;1.77;;
56363;SDS011;42261;52.094;4.326;2023-02-28T13:17:21;6.82;;;2.10;;
56363;SDS011;42261;52.094;4.326;2023-02-28T13:20:15;3.28;;;1.80;;
56363;SDS011;42261;52.094;4.326;2023-02-28T13:23:01;1.10;;;0.90;;
56363;SDS011;42261;52.094;4.326;2023-02-28T13:37:48;3.08;;;1.70;;
56363;SDS011;42261;52.094;4.326;2023-02-28T13:40:34;1.88;;;1.50;;
56363;SDS011;42261;52.094;4.326;2023-02-28T13:43:23;2.03;;;1.35;;
56363;SDS011;42261;52.094;4.326;2023-02-28T13:46:25;3.72;;;1.30;;
56363;SDS011;42261;52.094;4.326;2023-02-28T13:49:19;1.90;;;1.40;;
56363;SDS011;42261;52.094;4.326;2023-02-28T13:55:00;6.30;;;1.77;;
56363;SDS011;42261;52.094;4.326;2023-02-28T14:01:21;1.85;;;1.52;;
56363;SDS011;42261;52.094;4.326;2023-02-28T14:06:28;5.88;;;2.53;;
56363;SDS011;42261;52.094;4.326;2023-02-28T14:30:03;7.13;;;3.60;;
56363;SDS011;42261;52.094;4.326;2023-02-28T14:38:49;2.80;;;1.40;;
56363;SDS011;42261;52.094;4.326;2023-02-28T14:44:25;4.32;;;2.30;;
56363;SDS011;42261;52.094;4.326;2023-02-28T14:47:14;2.58;;;1.35;;
56363;SDS011;42261;52.094;4.326;2023-02-28T14:49:59;3.00;;;1.63;;
56363;SDS011;42261;52.094;4.326;2023-02-28T14:52:48;2.97;;;1.38;;
56363;SDS011;42261;52.094;4.326;2023-02-28T14:55:35;2.95;;;1.83;;
56363;SDS011;42261;52.094;4.326;2023-02-28T15:01:15;2.65;;;1.88;;
56363;SDS011;42261;52.094;4.326;2023-02-28T15:04:04;2.53;;;1.55;;
56363;SDS011;42261;52.094;4.326;2023-02-28T15:07:13;2.42;;;1.40;;
56363;SDS011;42261;52.094;4.326;2023-02-28T15:10:11;3.05;;;1.40;;
56363;SDS011;42261;52.094;4.326;2023-02-28T15:13:11;3.17;;;2.15;;
56363;SDS011;42261;52.094;4.326;2023-02-28T15:15:59;3.03;;;1.70;;
56363;SDS011;42261;52.094;4.326;2023-02-28T15:18:53;5.07;;;2.50;;
56363;SDS011;42261;52.094;4.326;2023-02-28T15:21:39;2.08;;;1.65;;
56363;SDS011;42261;52.094;4.326;2023-02-28T15:24:39;2.05;;;1.33;;
56363;SDS011;42261;52.094;4.326;2023-02-28T15:27:27;5.97;;;1.90;;
56363;SDS011;42261;52.094;4.326;2023-02-28T15:30:17;2.38;;;1.27;;
56363;SDS011;42261;52.094;4.326;2023-02-28T15:33:04;1.77;;;1.20;;
56363;SDS011;42261;52.094;4.326;2023-02-28T15:35:49;1.63;;;1.30;;
56363;SDS011;42261;52.094;4.326;2023-02-28T15:38:35;3.35;;;1.52;;
56363;SDS011;42261;52.094;4.326;2023-02-28T15:41:22;2.17;;;1.30;;
56363;SDS011;42261;52.094;4.326;2023-02-28T15:47:16;3.38;;;1.70;;
56363;SDS011;42261;52.094;4.326;2023-02-28T15:50:02;2.20;;;1.38;;
56363;SDS011;42261;52.094;4.326;2023-02-28T15:52:46;2.38;;;1.55;;
56363;SDS011;42261;52.094;4.326;2023-02-28T15:55:31;1.70;;;1.45;;
56363;SDS011;42261;52.094;4.326;2023-02-28T15:58:15;5.97;;;1.80;;
56363;SDS011;42261;52.094;4.326;2023-02-28T16:03:51;4.80;;;1.60;;
56363;SDS011;42261;52.094;4.326;2023-02-28T16:06:43;2.03;;;1.33;;
56363;SDS011;42261;52.094;4.326;2023-02-28T16:09:29;3.00;;;1.40;;
56363;SDS011;42261;52.094;4.326;2023-02-28T16:12:14;2.33;;;1.30;;
56363;SDS011;42261;52.094;4.326;2023-02-28T16:15:00;2.78;;;1.38;;
56363;SDS011;42261;52.094;4.326;2023-02-28T16:17:47;3.58;;;1.70;;
56363;SDS011;42261;52.094;4.326;2023-02-28T16:20:32;3.35;;;2.08;;
56363;SDS011;42261;52.094;4.326;2023-02-28T16:23:19;2.13;;;1.60;;
56363;SDS011;42261;52.094;4.326;2023-02-28T16:26:03;2.33;;;1.63;;
56363;SDS011;42261;52.094;4.326;2023-02-28T16:28:49;3.78;;;2.10;;
56363;SDS011;42261;52.094;4.326;2023-02-28T16:31:35;2.78;;;1.67;;
56363;SDS011;42261;52.094;4.326;2023-02-28T16:34:21;4.65;;;2.08;;
56363;SDS011;42261;52.094;4.326;2023-02-28T16:37:09;2.63;;;1.60;;
56363;SDS011;42261;52.094;4.326;2023-02-28T16:42:39;2.75;;;1.75;;
56363;SDS011;42261;52.094;4.326;2023-02-28T16:45:28;5.45;;;2.55;;
56363;SDS011;42261;52.094;4.326;2023-02-28T16:48:13;2.20;;;1.50;;
56363;SDS011;42261;52.094;4.326;2023-02-28T16:50:57;2.08;;;1.40;;
56363;SDS011;42261;52.094;4.326;2023-02-28T16:53:42;2.30;;;1.48;;
56363;SDS011;42261;52.094;4.326;2023-02-28T16:56:26;5.07;;;2.00;;
56363;SDS011;42261;52.094;4.326;2023-02-28T16:59:10;3.00;;;1.50;;
56363;SDS011;42261;52.094;4.326;2023-02-28T17:01:55;2.17;;;1.33;;
56363;SDS011;42261;52.094;4.326;2023-02-28T17:04:41;3.53;;;1.50;;
56363;SDS011;42261;52.094;4.326;2023-02-28T17:07:25;3.88;;;1.65;;
56363;SDS011;42261;52.094;4.326;2023-02-28T17:10:30;2.45;;;1.80;;
56363;SDS011;42261;52.094;4.326;2023-02-28T17:13:14;4.05;;;2.15;;
56363;SDS011;42261;52.094;4.326;2023-02-28T17:15:58;4.68;;;2.03;;
56363;SDS011;42261;52.094;4.326;2023-02-28T17:18:42;6.15;;;2.90;;
56363;SDS011;42261;52.094;4.326;2023-02-28T17:21:26;2.13;;;1.65;;
56363;SDS011;42261;52.094;4.326;2023-02-28T17:24:11;3.00;;;1.70;;
56363;SDS011;42261;52.094;4.326;2023-02-28T17:26:56;3.83;;;1.67;;
56363;SDS011;42261;52.094;4.326;2023-02-28T17:29:41;3.15;;;1.92;;
56363;SDS011;42261;52.094;4.326;2023-02-28T17:32:25;5.65;;;2.20;;
56363;SDS011;42261;52.094;4.326;2023-02-28T17:35:11;3.55;;;1.92;;
56363;SDS011;42261;52.094;4.326;2023-02-28T17:37:55;4.78;;;2.47;;
56363;SDS011;42261;52.094;4.326;2023-02-28T17:40:39;5.45;;;3.75;;
56363;SDS011;42261;52.094;4.326;2023-02-28T17:43:24;4.05;;;2.70;;
56363;SDS011;42261;52.094;4.326;2023-02-28T17:46:11;5.18;;;2.38;;
56363;SDS011;42261;52.094;4.326;2023-02-28T17:48:59;3.33;;;2.20;;
56363;SDS011;42261;52.094;4.326;2023-02-28T17:51:44;2.92;;;2.10;;
56363;SDS011;42261;52.094;4.326;2023-02-28T17:54:28;3.60;;;1.77;;
56363;SDS011;42261;52.094;4.326;2023-02-28T17:57:14;4.85;;;2.22;;
56363;SDS011;42261;52.094;4.326;2023-02-28T17:59:58;7.63;;;3.45;;
56363;SDS011;42261;52.094;4.326;2023-02-28T18:02:42;4.10;;;2.10;;
56363;SDS011;42261;52.094;4.326;2023-02-28T18:05:27;4.18;;;2.42;;
56363;SDS011;42261;52.094;4.326;2023-02-28T18:08:11;3.60;;;2.35;;
56363;SDS011;42261;52.094;4.326;2023-02-28T18:10:56;4.65;;;2.22;;
56363;SDS011;42261;52.094;4.326;2023-02-28T18:13:40;3.40;;;2.13;;
56363;SDS011;42261;52.094;4.326;2023-02-28T18:16:25;4.07;;;2.38;;
56363;SDS011;42261;52.094;4.326;2023-02-28T18:19:10;4.70;;;2.47;;
56363;SDS011;42261;52.094;4.326;2023-02-28T18:21:58;4.53;;;2.20;;
56363;SDS011;42261;52.094;4.326;2023-02-28T18:24:44;3.25;;;2.20;;
56363;SDS011;42261;52.094;4.326;2023-02-28T18:27:29;3.47;;;2.22;;
56363;SDS011;42261;52.094;4.326;2023-02-28T18:30:14;3.67;;;2.50;;
56363;SDS011;42261;52.094;4.326;2023-02-28T18:32:58;4.57;;;2.92;;
56363;SDS011;42261;52.094;4.326;2023-02-28T18:35:43;7.63;;;2.10;;
56363;SDS011;42261;52.094;4.326;2023-02-28T18:38:27;5.03;;;3.15;;
56363;SDS011;42261;52.094;4.326;2023-02-28T18:41:12;3.90;;;2.22;;
56363;SDS011;42261;52.094;4.326;2023-02-28T18:43:59;3.33;;;2.42;;
56363;SDS011;42261;52.094;4.326;2023-02-28T18:46:43;4.95;;;2.22;;
56363;SDS011;42261;52.094;4.326;2023-02-28T18:49:27;4.05;;;2.35;;
56363;SDS011;42261;52.094;4.326;2023-02-28T18:52:11;4.47;;;3.00;;
56363;SDS011;42261;52.094;4.326;2023-02-28T18:54:56;5.60;;;2.70;;
56363;SDS011;42261;52.094;4.326;2023-02-28T18:57:40;6.28;;;2.72;;
56363;SDS011;42261;52.094;4.326;2023-02-28T19:00:24;3.72;;;2.05;;
56363;SDS011;42261;52.094;4.326;2023-02-28T19:03:09;5.40;;;2.30;;
56363;SDS011;42261;52.094;4.326;2023-02-28T19:05:54;3.78;;;2.10;;
56363;SDS011;42261;52.094;4.326;2023-02-28T19:08:39;8.98;;;2.90;;
56363;SDS011;42261;52.094;4.326;2023-02-28T19:11:23;4.30;;;2.25;;
56363;SDS011;42261;52.094;4.326;2023-02-28T19:14:08;3.92;;;2.20;;
56363;SDS011;42261;52.094;4.326;2023-02-28T19:16:52;3.95;;;3.25;;
56363;SDS011;42261;52.094;4.326;2023-02-28T19:19:36;3.70;;;2.63;;
56363;SDS011;42261;52.094;4.326;2023-02-28T19:22:20;5.15;;;2.80;;
56363;SDS011;42261;52.094;4.326;2023-02-28T19:25:05;5.25;;;2.92;;
56363;SDS011;42261;52.094;4.326;2023-02-28T19:27:52;4.85;;;2.40;;
56363;SDS011;42261;52.094;4.326;2023-02-28T19:30:36;4.88;;;2.45;;
56363;SDS011;42261;52.094;4.326;2023-02-28T19:33:22;4.50;;;2.83;;
56363;SDS011;42261;52.094;4.326;2023-02-28T19:36:06;7.30;;;3.13;;
56363;SDS011;42261;52.094;4.326;2023-02-28T19:38:51;2.97;;;2.25;;
56363;SDS011;42261;52.094;4.326;2023-02-28T19:41:35;4.60;;;2.95;;
56363;SDS011;42261;52.094;4.326;2023-02-28T19:44:19;4.53;;;2.70;;
56363;SDS011;42261;52.094;4.326;2023-02-28T19:47:03;5.13;;;2.45;;
56363;SDS011;42261;52.094;4.326;2023-02-28T19:49:47;4.90;;;2.67;;
56363;SDS011;42261;52.094;4.326;2023-02-28T19:52:31;3.17;;;2.50;;